Time;durP1;ratioP1;P1;durP2;ratioP2;P2;SDS_P1;SDS_P2;PMS_P1;PMS_P2;Temp;Humidity;BMP_temperature;BMP_pressure;BME280_temperature;BME280_humidity;BME280_pressure;Samples;Min_cycle;Max_cycle;Signal;HPM_P1;HPM_P2
2023/02/13 19:07:53;;;;;;;;;59.50;48.25;;;;;13.12;49.62;102877.78;6250867;21;1322113;-75
2023/02/13 19:10:18;;;;;;;;;64.75;50.00;;;;;13.11;49.50;102873.38;6307695;22;46878;-70
2023/02/13 19:12:43;;;;;;;;;63.25;50.25;;;;;13.02;49.70;102871.53;6309520;22;45144;-77
2023/02/13 19:15:09;;;;;;;;;66.75;51.00;;;;;13.01;49.66;102875.91;6310134;22;45414;-76
2023/02/13 19:17:36;;;;;;;;;69.50;55.00;;;;;13.00;49.67;102876.81;6309073;22;45422;-70
2023/02/13 19:20:02;;;;;;;;;71.00;54.75;;;;;12.97;49.84;102871.47;6309599;22;45436;-70
2023/02/13 19:22:28;;;;;;;;;68.50;51.25;;;;;12.92;49.71;102873.19;6309391;22;45359;-75
2023/02/13 19:24:53;;;;;;;;;71.00;56.75;;;;;12.91;49.93;102876.69;6309936;22;45939;-68
2023/02/13 19:27:18;;;;;;;;;76.67;63.00;;;;;12.82;49.85;102866.94;6309288;22;45377;-73
2023/02/13 19:29:46;;;;;;;;;69.50;54.75;;;;;12.81;50.31;102864.28;6309618;22;45349;-68
2023/02/13 19:32:11;;;;;;;;;70.75;53.50;;;;;12.77;49.63;102867.75;6333863;22;45279;-74
2023/02/13 19:34:36;;;;;;;;;70.50;54.25;;;;;12.70;49.74;102871.19;6334159;22;45394;-69
2023/02/13 19:37:02;;;;;;;;;71.50;54.00;;;;;12.65;49.84;102874.69;6309591;22;45239;-73
2023/02/13 19:39:27;;;;;;;;;72.50;54.00;;;;;12.60;50.04;102867.56;6309942;22;45979;-77
2023/02/13 19:41:52;;;;;;;;;72.25;55.00;;;;;12.58;49.81;102878.09;6309642;22;45308;-74
2023/02/13 19:44:18;;;;;;;;;71.75;55.00;;;;;12.49;49.96;102868.34;6309995;22;45254;-74
2023/02/13 19:46:43;;;;;;;;;73.00;56.67;;;;;12.51;49.92;102876.25;6307928;22;45529;-72
2023/02/13 19:49:09;;;;;;;;;74.75;60.25;;;;;12.44;49.81;102874.41;6309832;22;45177;-71
2023/02/13 19:51:35;;;;;;;;;70.25;53.25;;;;;12.38;49.94;102872.59;6309648;22;45268;-75
2023/02/13 19:54:09;;;;;;;;;75.00;57.50;;;;;12.39;50.11;102877.00;6309966;22;45152;-71
2023/02/13 19:56:37;;;;;;;;;74.67;57.00;;;;;12.32;50.11;102878.66;6309110;22;45386;-72
2023/02/13 19:59:03;;;;;;;;;70.00;56.67;;;;;12.31;50.05;102878.66;6309125;22;46326;-73
2023/02/13 20:01:29;;;;;;;;;73.00;57.33;;;;;12.28;50.15;102873.34;6307388;22;45244;-75
2023/02/13 20:03:55;;;;;;;;;68.25;54.50;;;;;12.24;50.21;102872.44;6309576;22;45192;-74
2023/02/13 20:06:40;;;;;;;;;63.75;51.50;;;;;12.18;50.09;102869.72;6310559;22;45275;-71
2023/02/13 20:09:09;;;;;;;;;69.50;53.75;;;;;12.15;50.00;102875.81;6308366;22;45395;-69
2023/02/13 20:11:35;;;;;;;;;68.50;54.25;;;;;12.12;50.10;102874.91;6332723;22;45338;-71
2023/02/13 20:14:00;;;;;;;;;62.75;50.25;;;;;12.07;49.99;102873.94;6310265;22;45195;-70
2023/02/13 20:16:31;;;;;;;;;67.50;53.75;;;;;11.95;50.33;102861.44;6307411;22;45462;-72
2023/02/13 20:19:00;;;;;;;;;65.00;51.00;;;;;12.02;50.17;102880.06;6308419;22;45326;-71
2023/02/13 20:21:25;;;;;;;;;71.00;56.50;;;;;11.97;50.36;102878.19;6309336;22;45322;-69
2023/02/13 20:23:54;;;;;;;;;63.25;50.75;;;;;11.96;50.20;102876.44;6309574;22;45283;-69
2023/02/13 20:26:20;;;;;;;;;71.25;54.75;;;;;11.93;50.03;102869.34;6309248;22;45473;-70
2023/02/13 20:28:46;;;;;;;;;71.50;53.00;;;;;11.91;49.85;102873.72;6307518;22;45460;-69
2023/02/13 20:31:17;;;;;;;;;69.00;53.00;;;;;11.86;50.15;102872.72;6308134;22;45220;-69
2023/02/13 20:33:43;;;;;;;;;72.75;54.00;;;;;11.87;50.19;102879.78;6307678;22;45205;-71
2023/02/13 20:36:23;;;;;;;;;72.50;55.25;;;;;11.85;50.21;102876.25;6307878;22;45406;-70
2023/02/13 20:38:52;;;;;;;;;69.50;53.25;;;;;11.84;50.25;102879.75;6309200;22;45287;-70
2023/02/13 20:41:19;;;;;;;;;67.75;53.75;;;;;11.81;50.06;102877.06;6310070;22;45096;-71
2023/02/13 20:43:48;;;;;;;;;73.75;58.00;;;;;11.75;50.08;102879.59;6310330;22;45298;-69
2023/02/13 20:46:15;;;;;;;;;74.75;56.75;;;;;11.71;50.14;102876.94;6307170;22;45241;-69
2023/02/13 20:48:42;;;;;;;;;69.00;54.25;;;;;11.72;50.14;102885.69;6309839;22;45979;-69
2023/02/13 20:51:10;;;;;;;;;71.00;54.75;;;;;11.69;50.14;102886.53;6309809;22;45276;-70
2023/02/13 20:53:36;;;;;;;;;68.50;54.00;;;;;11.61;50.25;102868.84;6308949;22;45235;-70
2023/02/13 20:56:04;;;;;;;;;71.75;55.50;;;;;11.65;50.30;102874.19;6308420;22;45977;-70
2023/02/13 20:58:31;;;;;;;;;70.75;55.75;;;;;11.64;50.29;102879.44;6308565;22;47505;-70
2023/02/13 21:01:00;;;;;;;;;64.00;49.67;;;;;11.60;50.06;102878.50;6308896;22;45804;-72
2023/02/13 21:03:26;;;;;;;;;63.75;51.25;;;;;11.51;50.33;102866.09;6308071;22;45330;-70
2023/02/13 21:05:51;;;;;;;;;65.50;51.25;;;;;11.57;50.26;102878.44;6308919;22;45223;-69
2023/02/13 21:08:16;;;;;;;;;71.75;54.75;;;;;11.54;50.21;102881.03;6308720;22;46198;-70
2023/02/13 21:10:42;;;;;;;;;68.25;53.75;;;;;11.47;50.35;102872.19;6311778;22;45354;-70
2023/02/13 21:13:09;;;;;;;;;71.25;55.50;;;;;11.44;50.30;102874.75;6334480;22;45204;-69
2023/02/13 21:15:34;;;;;;;;;68.25;54.00;;;;;11.44;50.38;102876.50;6309356;22;45402;-70
2023/02/13 21:18:02;;;;;;;;;72.00;55.75;;;;;11.43;50.39;102882.63;6310200;22;45136;-70
2023/02/13 21:20:28;;;;;;;;;74.75;57.50;;;;;11.39;50.42;102884.31;6309377;22;45180;-69
2023/02/13 21:22:54;;;;;;;;;68.50;53.50;;;;;11.38;50.52;102880.81;6308039;22;45363;-69
2023/02/13 21:25:20;;;;;;;;;74.75;58.25;;;;;11.33;50.31;102877.22;6308546;22;45806;-69
2023/02/13 21:27:50;;;;;;;;;72.50;55.00;;;;;11.34;50.42;102886.84;6334201;22;45251;-71
2023/02/13 21:30:15;;;;;;;;;73.00;57.25;;;;;11.24;50.64;102879.66;6308573;22;45612;-71
2023/02/13 21:32:41;;;;;;;;;73.00;58.25;;;;;11.27;50.54;102890.28;6334087;22;45298;-72
2023/02/13 21:35:07;;;;;;;;;73.00;57.00;;;;;11.24;50.49;102882.31;6308019;22;45252;-73
2023/02/13 21:37:32;;;;;;;;;76.33;65.67;;;;;11.21;50.55;102884.91;6308408;22;46946;-71
2023/02/13 21:39:57;;;;;;;;;72.00;57.00;;;;;11.14;50.60;102878.63;6310548;22;45255;-70
2023/02/13 21:42:23;;;;;;;;;73.00;56.00;;;;;11.17;50.63;102893.56;6334041;22;45610;-71
2023/02/13 21:44:48;;;;;;;;;71.75;56.25;;;;;11.13;50.68;102894.38;6310534;22;45337;-73
2023/02/13 21:47:14;;;;;;;;;72.00;56.00;;;;;11.08;50.61;102890.78;6309877;22;45352;-72
2023/02/13 21:49:40;;;;;;;;;75.50;55.00;;;;;11.09;50.73;102900.47;6310100;22;45200;-70
2023/02/13 21:52:05;;;;;;;;;70.75;54.00;;;;;11.06;50.60;102901.28;6310588;22;45366;-73
2023/02/13 21:54:31;;;;;;;;;72.25;57.75;;;;;11.03;50.96;102893.34;6311468;22;45445;-73
2023/02/13 21:56:56;;;;;;;;;74.75;58.50;;;;;11.02;50.76;102895.09;6307702;22;46518;-74
2023/02/13 21:59:21;;;;;;;;;71.75;54.00;;;;;10.99;50.69;102895.03;6334456;22;45281;-73
2023/02/13 22:01:52;;;;;;;;;72.50;55.75;;;;;10.98;50.82;102903.78;6308934;22;45373;-74
2023/02/13 22:04:18;;;;;;;;;70.25;55.50;;;;;10.95;50.89;102895.81;6308277;22;45483;-72
2023/02/13 22:06:47;;;;;;;;;68.75;53.00;;;;;10.93;50.82;102900.19;6310141;22;45336;-68
2023/02/13 22:09:15;;;;;;;;;67.25;53.50;;;;;10.89;50.74;102887.81;6307587;22;45339;-70
2023/02/13 22:11:41;;;;;;;;;69.50;56.50;;;;;10.87;50.65;102895.69;6310375;22;45195;-71
2023/02/13 22:14:09;;;;;;;;;77.00;60.33;;;;;10.83;50.92;102893.88;6310507;22;45235;-71
2023/02/13 22:16:36;;;;;;;;;72.50;56.25;;;;;10.86;50.91;102893.91;6309506;22;46277;-72
2023/02/13 22:19:03;;;;;;;;;77.00;60.00;;;;;10.82;50.80;102889.47;6307735;22;45466;-72
2023/02/13 22:21:34;;;;;;;;;76.00;59.50;;;;;10.81;50.89;102895.56;6310572;22;45333;-70
2023/02/13 22:24:00;;;;;;;;;72.75;56.00;;;;;10.79;51.20;102899.94;6310272;22;45234;-72
2023/02/13 22:26:37;;;;;;;;;72.00;55.00;;;;;10.78;50.91;102895.53;6308253;22;46912;-71
2023/02/13 22:29:10;;;;;;;;;73.50;57.00;;;;;10.77;50.99;102893.75;6311659;22;45234;-76
2023/02/13 22:31:36;;;;;;;;;70.25;54.25;;;;;10.70;50.88;102887.50;6307818;22;45335;-75
2023/02/13 22:34:02;;;;;;;;;71.50;54.00;;;;;10.71;50.71;102894.50;6307280;22;45274;-75
2023/02/13 22:36:28;;;;;;;;;74.00;56.75;;;;;10.67;51.11;102889.16;6308026;22;46945;-74
2023/02/13 22:38:53;;;;;;;;;71.25;56.00;;;;;10.63;51.10;102885.59;6310272;22;45202;-74
2023/02/13 22:41:21;;;;;;;;;74.50;57.50;;;;;10.65;51.06;102893.50;6309268;22;45320;-70
2023/02/13 22:43:47;;;;;;;;;75.00;59.33;;;;;10.61;50.91;102892.53;6309922;22;45330;-69
2023/02/13 22:46:18;;;;;;;;;84.33;68.67;;;;;10.61;51.10;102903.06;6309036;22;45863;-71
2023/02/13 22:48:44;;;;;;;;;76.67;61.33;;;;;10.55;50.86;102897.69;6309847;22;45177;-70
2023/02/13 22:51:12;;;;;;;;;86.67;73.33;;;;;10.57;50.96;102898.59;6334407;22;45185;-67
2023/02/13 22:53:38;;;;;;;;;91.67;82.00;;;;;10.49;51.32;102884.41;6308095;22;45446;-69
2023/02/13 22:56:05;;;;;;;;;85.67;75.67;;;;;10.50;51.17;102894.06;6333955;22;47449;-68
2023/02/13 22:58:30;;;;;;;;;83.33;72.67;;;;;10.49;51.19;102897.56;6309678;22;45226;-67
2023/02/13 23:00:56;;;;;;;;;79.67;65.00;;;;;10.43;51.01;102884.28;6309747;22;45289;-68
2023/02/13 23:03:22;;;;;;;;;76.67;63.00;;;;;10.44;51.10;102900.09;6310186;22;45288;-67
2023/02/13 23:05:47;;;;;;;;;75.33;58.33;;;;;10.40;51.02;102893.00;6333858;22;47056;-67
2023/02/13 23:08:13;;;;;;;;;75.67;59.67;;;;;10.38;51.29;102887.72;6333703;22;45660;-68
2023/02/13 23:10:38;;;;;;;;;77.33;60.67;;;;;10.36;51.06;102878.94;6310065;22;45113;-68
2023/02/13 23:13:08;;;;;;;;;76.33;61.00;;;;;10.35;51.16;102884.09;6307665;22;45353;-67
2023/02/13 23:15:37;;;;;;;;;80.67;61.33;;;;;10.29;51.32;102879.63;6333829;22;46691;-68
2023/02/13 23:18:12;;;;;;;;;76.00;61.67;;;;;10.23;51.12;102871.59;6307334;22;45264;-68
2023/02/13 23:20:40;;;;;;;;;76.00;61.33;;;;;10.23;51.19;102884.72;6307178;22;45473;-68
2023/02/13 23:23:06;;;;;;;;;78.00;60.33;;;;;10.23;51.18;102888.22;6309865;22;45109;-68
2023/02/13 23:25:31;;;;;;;;;78.33;63.00;;;;;10.20;51.23;102884.66;6307251;22;45300;-68
2023/02/13 23:27:57;;;;;;;;;75.00;59.33;;;;;10.15;51.14;102879.31;6309328;22;45368;-69
2023/02/13 23:30:23;;;;;;;;;83.00;68.67;;;;;10.15;51.24;102881.94;6309847;22;45165;-67
2023/02/13 23:32:49;;;;;;;;;82.00;66.67;;;;;10.11;51.43;102872.19;6309229;22;45401;-67
2023/02/13 23:35:15;;;;;;;;;81.33;67.67;;;;;10.10;51.39;102878.34;6309474;22;46613;-68
2023/02/13 23:37:40;;;;;;;;;78.67;60.67;;;;;10.01;51.50;102870.22;6307599;22;45323;-74
2023/02/13 23:40:06;;;;;;;;;77.00;59.67;;;;;10.01;51.34;102873.75;6310311;22;46039;-70
2023/02/13 23:42:32;;;;;;;;;77.00;60.67;;;;;9.98;51.33;102878.94;6309056;22;45264;-69
2023/02/13 23:44:58;;;;;;;;;85.00;71.00;;;;;9.90;51.40;102870.88;6307582;22;46263;-71
2023/02/13 23:47:23;;;;;;;;;75.67;58.00;;;;;9.89;51.44;102870.84;6307870;22;45185;-71
2023/02/13 23:49:49;;;;;;;;;77.67;57.67;;;;;9.84;51.57;102875.13;6310070;22;45566;-69
2023/02/13 23:52:14;;;;;;;;;77.33;63.33;;;;;9.81;51.32;102869.78;6310018;22;45529;-67
2023/02/13 23:54:40;;;;;;;;;80.33;66.00;;;;;9.73;51.63;102857.34;6333316;22;46500;-71
2023/02/13 23:57:08;;;;;;;;;80.00;66.00;;;;;9.73;51.64;102864.34;6309728;22;45177;-69
2023/02/13 23:59:35;;;;;;;;;80.33;65.33;;;;;9.69;51.57;102870.41;6310235;22;45516;-68
